sensor_id;sensor_type;location;lat;lon;timestamp;pressure;altitude;pressure_sealevel;temperature;humidity
13690;BME280;6917;52.194;9.894;2022-11-11T00:02:14;101595.28;;;9.32;88.96
13690;BME280;6917;52.194;9.894;2022-11-11T00:04:39;101592.81;;;9.20;89.16
13690;BME280;6917;52.194;9.894;2022-11-11T00:07:05;101598.03;;;9.27;89.01
13690;BME280;6917;52.194;9.894;2022-11-11T00:09:30;101591.19;;;9.19;89.65
13690;BME280;6917;52.194;9.894;2022-11-11T00:11:56;101585.19;;;9.17;89.49
13690;BME280;6917;52.194;9.894;2022-11-11T00:14:21;101595.84;;;9.29;88.93
13690;BME280;6917;52.194;9.894;2022-11-11T00:16:47;101594.16;;;9.48;87.50
13690;BME280;6917;52.194;9.894;2022-11-11T00:19:31;101600.41;;;9.59;86.76
13690;BME280;6917;52.194;9.894;2022-11-11T00:22:22;101607.75;;;9.64;86.33
13690;BME280;6917;52.194;9.894;2022-11-11T00:25:06;101617.84;;;9.68;85.82
13690;BME280;6917;52.194;9.894;2022-11-11T00:27:33;101612.41;;;9.73;85.42
13690;BME280;6917;52.194;9.894;2022-11-11T00:29:59;101614.84;;;9.75;84.91
13690;BME280;6917;52.194;9.894;2022-11-11T00:32:24;101616.50;;;9.71;85.01
13690;BME280;6917;52.194;9.894;2022-11-11T00:34:57;101620.31;;;9.65;85.51
13690;BME280;6917;52.194;9.894;2022-11-11T00:37:42;101619.50;;;9.64;85.10
13690;BME280;6917;52.194;9.894;2022-11-11T00:40:08;101635.88;;;9.59;85.28
13690;BME280;6917;52.194;9.894;2022-11-11T00:42:34;101623.34;;;9.58;85.29
13690;BME280;6917;52.194;9.894;2022-11-11T00:44:59;101628.78;;;9.63;85.42
13690;BME280;6917;52.194;9.894;2022-11-11T00:47:25;101625.78;;;9.65;85.08
13690;BME280;6917;52.194;9.894;2022-11-11T00:50:12;101618.94;;;9.67;84.64
13690;BME280;6917;52.194;9.894;2022-11-11T00:52:56;101619.78;;;9.63;84.69
13690;BME280;6917;52.194;9.894;2022-11-11T00:55:21;101619.22;;;9.66;84.36
13690;BME280;6917;52.194;9.894;2022-11-11T00:57:47;101618.97;;;9.57;84.41
13690;BME280;6917;52.194;9.894;2022-11-11T01:00:12;101623.34;;;9.58;84.46
13690;BME280;6917;52.194;9.894;2022-11-11T01:02:37;101622.81;;;9.56;84.62
13690;BME280;6917;52.194;9.894;2022-11-11T01:05:03;101623.06;;;9.60;84.25
13690;BME280;6917;52.194;9.894;2022-11-11T01:07:28;101620.63;;;9.58;84.39
13690;BME280;6917;52.194;9.894;2022-11-11T01:09:54;101621.16;;;9.55;84.23
13690;BME280;6917;52.194;9.894;2022-11-11T01:12:19;101623.31;;;9.53;84.46
13690;BME280;6917;52.194;9.894;2022-11-11T01:14:44;101619.78;;;9.52;84.18
13690;BME280;6917;52.194;9.894;2022-11-11T01:17:10;101610.81;;;9.47;84.19
13690;BME280;6917;52.194;9.894;2022-11-11T01:19:35;101614.06;;;9.49;84.23
13690;BME280;6917;52.194;9.894;2022-11-11T01:22:00;101609.16;;;9.46;84.28
13690;BME280;6917;52.194;9.894;2022-11-11T01:24:26;101599.06;;;9.46;84.34
13690;BME280;6917;52.194;9.894;2022-11-11T01:26:51;101619.25;;;9.56;83.99
13690;BME280;6917;52.194;9.894;2022-11-11T01:29:17;101620.31;;;9.54;83.60
13690;BME280;6917;52.194;9.894;2022-11-11T01:31:42;101612.97;;;9.60;83.27
13690;BME280;6917;52.194;9.894;2022-11-11T01:34:08;101623.06;;;9.60;82.93
13690;BME280;6917;52.194;9.894;2022-11-11T01:36:33;101626.06;;;9.58;83.10
13690;BME280;6917;52.194;9.894;2022-11-11T01:38:59;101635.63;;;9.56;82.88
13690;BME280;6917;52.194;9.894;2022-11-11T01:41:31;101625.78;;;9.54;82.93
13690;BME280;6917;52.194;9.894;2022-11-11T01:46:35;101626.59;;;9.60;82.84
13690;BME280;6917;52.194;9.894;2022-11-11T01:57:00;101641.09;;;9.35;83.92
13690;BME280;6917;52.194;9.894;2022-11-11T01:59:26;101638.63;;;9.44;83.14
13690;BME280;6917;52.194;9.894;2022-11-11T02:01:52;101641.88;;;9.51;82.71
13690;BME280;6917;52.194;9.894;2022-11-11T02:04:18;101622.00;;;9.56;82.18
13690;BME280;6917;52.194;9.894;2022-11-11T02:07:05;101627.16;;;9.52;82.04
13690;BME280;6917;52.194;9.894;2022-11-11T02:09:33;101614.63;;;9.41;82.33
13690;BME280;6917;52.194;9.894;2022-11-11T02:12:03;101622.50;;;9.52;81.93
13690;BME280;6917;52.194;9.894;2022-11-11T02:14:52;101620.63;;;9.48;81.85
13690;BME280;6917;52.194;9.894;2022-11-11T02:17:18;101623.63;;;9.46;82.12
13690;BME280;6917;52.194;9.894;2022-11-11T02:24:51;101629.91;;;9.57;81.24
13690;BME280;6917;52.194;9.894;2022-11-11T02:27:18;101623.88;;;9.50;81.27
13690;BME280;6917;52.194;9.894;2022-11-11T02:29:48;101626.88;;;9.48;81.66
13690;BME280;6917;52.194;9.894;2022-11-11T02:32:15;101619.00;;;9.42;81.83
13690;BME280;6917;52.194;9.894;2022-11-11T02:34:40;101616.25;;;9.47;81.90
13690;BME280;6917;52.194;9.894;2022-11-11T02:37:07;101629.31;;;9.65;80.82
13690;BME280;6917;52.194;9.894;2022-11-11T02:39:34;101625.50;;;9.71;80.03
13690;BME280;6917;52.194;9.894;2022-11-11T02:42:01;101627.97;;;9.63;80.32
13690;BME280;6917;52.194;9.894;2022-11-11T02:44:34;101632.06;;;9.50;80.74
13690;BME280;6917;52.194;9.894;2022-11-11T02:46:59;101635.88;;;9.54;80.92
13690;BME280;6917;52.194;9.894;2022-11-11T02:49:25;101647.59;;;9.70;80.12
13690;BME280;6917;52.194;9.894;2022-11-11T02:51:50;101650.34;;;9.60;80.11
13690;BME280;6917;52.194;9.894;2022-11-11T02:54:15;101659.91;;;9.57;80.29
13690;BME280;6917;52.194;9.894;2022-11-11T02:56:40;101671.91;;;9.56;80.10
13690;BME280;6917;52.194;9.894;2022-11-11T02:59:24;101668.06;;;9.52;80.02
13690;BME280;6917;52.194;9.894;2022-11-11T03:01:49;101680.91;;;9.51;80.39
13690;BME280;6917;52.194;9.894;2022-11-11T03:04:15;101681.19;;;9.45;80.30
13690;BME280;6917;52.194;9.894;2022-11-11T03:06:40;101682.53;;;9.22;80.98
13690;BME280;6917;52.194;9.894;2022-11-11T03:09:05;101679.81;;;9.27;81.50
13690;BME280;6917;52.194;9.894;2022-11-11T03:11:30;101675.47;;;9.26;81.17
13690;BME280;6917;52.194;9.894;2022-11-11T03:13:57;101680.34;;;9.19;81.59
13690;BME280;6917;52.194;9.894;2022-11-11T03:16:23;101674.06;;;9.03;82.10
13690;BME280;6917;52.194;9.894;2022-11-11T03:19:07;101668.09;;;9.27;81.75
13690;BME280;6917;52.194;9.894;2022-11-11T03:21:32;101672.72;;;9.16;81.78
13690;BME280;6917;52.194;9.894;2022-11-11T03:23:58;101658.00;;;9.17;81.78
13690;BME280;6917;52.194;9.894;2022-11-11T03:26:23;101662.38;;;9.43;81.09
13690;BME280;6917;52.194;9.894;2022-11-11T03:28:49;101648.72;;;9.48;80.38
13690;BME280;6917;52.194;9.894;2022-11-11T03:31:15;101659.59;;;9.53;79.73
13690;BME280;6917;52.194;9.894;2022-11-11T03:33:40;101650.63;;;9.38;80.21
13690;BME280;6917;52.194;9.894;2022-11-11T03:36:06;101654.72;;;9.45;79.86
13690;BME280;6917;52.194;9.894;2022-11-11T03:38:31;101645.47;;;9.41;80.54
13690;BME280;6917;52.194;9.894;2022-11-11T03:40:57;101640.81;;;9.21;80.74
13690;BME280;6917;52.194;9.894;2022-11-11T03:43:26;101640.56;;;9.28;80.94
13690;BME280;6917;52.194;9.894;2022-11-11T03:45:53;101635.63;;;9.20;81.46
13690;BME280;6917;52.194;9.894;2022-11-11T03:48:19;101627.47;;;9.30;81.01
13690;BME280;6917;52.194;9.894;2022-11-11T03:50:47;101628.84;;;9.28;80.89
13690;BME280;6917;52.194;9.894;2022-11-11T03:53:13;101626.91;;;9.18;81.13
13690;BME280;6917;52.194;9.894;2022-11-11T03:55:40;101618.72;;;9.18;80.82
13690;BME280;6917;52.194;9.894;2022-11-11T03:58:05;101615.19;;;9.17;81.00
13690;BME280;6917;52.194;9.894;2022-11-11T04:00:31;101615.19;;;9.28;81.00
13690;BME280;6917;52.194;9.894;2022-11-11T04:03:05;101615.16;;;9.38;80.41
13690;BME280;6917;52.194;9.894;2022-11-11T04:05:53;101611.09;;;9.45;79.66
13690;BME280;6917;52.194;9.894;2022-11-11T04:08:57;101614.59;;;9.61;79.13
13690;BME280;6917;52.194;9.894;2022-11-11T04:11:45;101620.84;;;9.67;78.91
13690;BME280;6917;52.194;9.894;2022-11-11T04:14:12;101615.69;;;9.70;78.76
13690;BME280;6917;52.194;9.894;2022-11-11T04:16:57;101607.44;;;9.80;77.77
13690;BME280;6917;52.194;9.894;2022-11-11T04:19:22;101603.38;;;9.78;77.64
13690;BME280;6917;52.194;9.894;2022-11-11T04:22:07;101604.72;;;9.80;77.93
13690;BME280;6917;52.194;9.894;2022-11-11T04:24:32;101600.91;;;9.76;77.88
13690;BME280;6917;52.194;9.894;2022-11-11T04:27:18;101604.97;;;9.89;77.31
13690;BME280;6917;52.194;9.894;2022-11-11T04:29:43;101616.13;;;9.98;77.34
13690;BME280;6917;52.194;9.894;2022-11-11T04:32:18;101623.78;;;10.01;77.11
13690;BME280;6917;52.194;9.894;2022-11-11T04:35:05;101616.97;;;9.98;76.81
13690;BME280;6917;52.194;9.894;2022-11-11T04:37:34;101622.69;;;10.02;76.92
13690;BME280;6917;52.194;9.894;2022-11-11T04:39:59;101622.41;;;9.98;76.80
13690;BME280;6917;52.194;9.894;2022-11-11T04:42:43;101636.06;;;9.98;76.97
13690;BME280;6917;52.194;9.894;2022-11-11T04:45:10;101624.88;;;9.95;77.12
13690;BME280;6917;52.194;9.894;2022-11-11T04:48:01;101622.41;;;9.93;77.29
13690;BME280;6917;52.194;9.894;2022-11-11T04:50:30;101631.44;;;9.94;77.11
13690;BME280;6917;52.194;9.894;2022-11-11T04:52:56;101628.94;;;9.97;77.25
13690;BME280;6917;52.194;9.894;2022-11-11T04:55:21;101626.28;;;9.87;77.19
13690;BME280;6917;52.194;9.894;2022-11-11T04:58:07;101622.72;;;9.87;77.51
13690;BME280;6917;52.194;9.894;2022-11-11T05:00:33;101636.09;;;9.88;77.38
13690;BME280;6917;52.194;9.894;2022-11-11T05:02:58;101630.38;;;9.84;77.56
13690;BME280;6917;52.194;9.894;2022-11-11T05:05:53;101618.09;;;9.77;77.77
13690;BME280;6917;52.194;9.894;2022-11-11T05:08:48;101627.94;;;9.78;78.18
13690;BME280;6917;52.194;9.894;2022-11-11T05:11:35;101629.84;;;9.72;78.44
13690;BME280;6917;52.194;9.894;2022-11-11T05:14:05;101624.41;;;9.72;78.22
13690;BME280;6917;52.194;9.894;2022-11-11T05:16:55;101619.50;;;9.64;78.37
13690;BME280;6917;52.194;9.894;2022-11-11T05:19:39;101635.34;;;9.57;78.82
13690;BME280;6917;52.194;9.894;2022-11-11T05:22:30;101641.63;;;9.58;79.11
13690;BME280;6917;52.194;9.894;2022-11-11T05:24:56;101650.09;;;9.56;79.21
13690;BME280;6917;52.194;9.894;2022-11-11T05:27:41;101642.44;;;9.48;79.49
13690;BME280;6917;52.194;9.894;2022-11-11T05:30:08;101652.81;;;9.46;79.42
13690;BME280;6917;52.194;9.894;2022-11-11T05:32:33;101663.16;;;9.49;79.87
13690;BME280;6917;52.194;9.894;2022-11-11T05:34:59;101658.25;;;9.51;79.46
13690;BME280;6917;52.194;9.894;2022-11-11T05:37:24;101659.09;;;9.46;79.59
13690;BME280;6917;52.194;9.894;2022-11-11T05:39:49;101665.63;;;9.45;79.51
13690;BME280;6917;52.194;9.894;2022-11-11T05:42:15;101661.53;;;9.33;79.89
13690;BME280;6917;52.194;9.894;2022-11-11T05:44:40;101674.91;;;9.34;80.00
13690;BME280;6917;52.194;9.894;2022-11-11T05:47:06;101674.09;;;9.34;80.05
13690;BME280;6917;52.194;9.894;2022-11-11T05:49:31;101669.72;;;9.33;80.25
13690;BME280;6917;52.194;9.894;2022-11-11T05:51:57;101681.44;;;9.33;80.51
13690;BME280;6917;52.194;9.894;2022-11-11T05:54:22;101679.81;;;9.27;80.55
13690;BME280;6917;52.194;9.894;2022-11-11T05:56:48;101681.97;;;9.25;80.93
13690;BME280;6917;52.194;9.894;2022-11-11T05:59:13;101678.44;;;9.19;81.26
13690;BME280;6917;52.194;9.894;2022-11-11T06:01:39;101675.44;;;9.06;81.63
13690;BME280;6917;52.194;9.894;2022-11-11T06:04:05;101665.06;;;8.92;82.38
13690;BME280;6917;52.194;9.894;2022-11-11T06:06:31;101666.13;;;8.91;82.71
13690;BME280;6917;52.194;9.894;2022-11-11T06:08:56;101660.66;;;8.76;83.11
13690;BME280;6917;52.194;9.894;2022-11-11T06:11:22;101667.44;;;8.58;83.97
13690;BME280;6917;52.194;9.894;2022-11-11T06:13:48;101659.50;;;8.52;84.17
13690;BME280;6917;52.194;9.894;2022-11-11T06:16:14;101669.56;;;8.41;84.79
13690;BME280;6917;52.194;9.894;2022-11-11T06:18:39;101669.97;;;8.23;85.68
13690;BME280;6917;52.194;9.894;2022-11-11T06:21:05;101673.03;;;8.31;86.41
13690;BME280;6917;52.194;9.894;2022-11-11T06:23:30;101690.78;;;8.39;85.80
13690;BME280;6917;52.194;9.894;2022-11-11T06:25:56;101683.38;;;8.29;86.45
13690;BME280;6917;52.194;9.894;2022-11-11T06:31:23;101693.22;;;8.35;86.90
13690;BME280;6917;52.194;9.894;2022-11-11T06:33:49;101692.44;;;8.40;86.54
13690;BME280;6917;52.194;9.894;2022-11-11T06:36:17;101695.63;;;8.32;86.39
13690;BME280;6917;52.194;9.894;2022-11-11T06:38:43;101698.28;;;8.22;86.98
13690;BME280;6917;52.194;9.894;2022-11-11T06:41:09;101711.94;;;8.27;86.71
13690;BME280;6917;52.194;9.894;2022-11-11T06:43:37;101718.69;;;8.14;87.22
13690;BME280;6917;52.194;9.894;2022-11-11T06:46:03;101706.63;;;8.00;88.11
13690;BME280;6917;52.194;9.894;2022-11-11T06:48:28;101712.06;;;8.00;88.48
13690;BME280;6917;52.194;9.894;2022-11-11T06:50:59;101715.00;;;7.93;89.22
13690;BME280;6917;52.194;9.894;2022-11-11T06:53:25;101716.06;;;7.87;89.63
13690;BME280;6917;52.194;9.894;2022-11-11T06:55:53;101712.72;;;7.80;89.60
13690;BME280;6917;52.194;9.894;2022-11-11T06:58:19;101716.69;;;7.62;89.93
13690;BME280;6917;52.194;9.894;2022-11-11T07:00:45;101708.22;;;7.59;91.64
13690;BME280;6917;52.194;9.894;2022-11-11T07:03:17;101712.25;;;7.51;91.44
13690;BME280;6917;52.194;9.894;2022-11-11T07:05:42;101712.88;;;7.63;92.04
13690;BME280;6917;52.194;9.894;2022-11-11T07:08:10;101719.03;;;7.49;92.23
13690;BME280;6917;52.194;9.894;2022-11-11T07:10:37;101726.34;;;7.48;93.13
13690;BME280;6917;52.194;9.894;2022-11-11T07:13:04;101735.44;;;7.59;92.93
13690;BME280;6917;52.194;9.894;2022-11-11T07:15:30;101726.75;;;7.62;92.26
13690;BME280;6917;52.194;9.894;2022-11-11T07:17:56;101719.13;;;7.64;92.48
13690;BME280;6917;52.194;9.894;2022-11-11T07:20:21;101719.75;;;7.71;92.13
13690;BME280;6917;52.194;9.894;2022-11-11T07:22:47;101720.31;;;7.73;92.13
13690;BME280;6917;52.194;9.894;2022-11-11T07:25:12;101712.50;;;7.82;91.96
13690;BME280;6917;52.194;9.894;2022-11-11T07:27:38;101713.91;;;7.94;91.48
13690;BME280;6917;52.194;9.894;2022-11-11T07:30:05;101714.25;;;8.03;90.93
13690;BME280;6917;52.194;9.894;2022-11-11T07:32:30;101723.59;;;8.22;90.38
13690;BME280;6917;52.194;9.894;2022-11-11T07:34:56;101709.88;;;8.49;88.64
13690;BME280;6917;52.194;9.894;2022-11-11T07:37:21;101719.19;;;8.58;87.84
13690;BME280;6917;52.194;9.894;2022-11-11T07:39:46;101721.66;;;8.65;87.19
13690;BME280;6917;52.194;9.894;2022-11-11T07:42:12;101722.19;;;8.67;86.63
13690;BME280;6917;52.194;9.894;2022-11-11T07:44:37;101730.91;;;8.64;86.44
13690;BME280;6917;52.194;9.894;2022-11-11T07:47:02;101742.19;;;8.83;85.56
13690;BME280;6917;52.194;9.894;2022-11-11T07:49:28;101749.00;;;8.85;85.99
13690;BME280;6917;52.194;9.894;2022-11-11T07:51:53;101759.41;;;9.04;84.79
13690;BME280;6917;52.194;9.894;2022-11-11T07:54:18;101754.50;;;9.11;84.12
13690;BME280;6917;52.194;9.894;2022-11-11T07:56:43;101750.44;;;9.18;83.95
13690;BME280;6917;52.194;9.894;2022-11-11T07:59:09;101754.53;;;9.26;83.49
13690;BME280;6917;52.194;9.894;2022-11-11T08:01:34;101752.91;;;9.35;82.67
13690;BME280;6917;52.194;9.894;2022-11-11T08:03:59;101750.75;;;9.42;82.39
13690;BME280;6917;52.194;9.894;2022-11-11T08:06:25;101735.72;;;9.40;82.21
13690;BME280;6917;52.194;9.894;2022-11-11T08:08:50;101744.72;;;9.50;82.10
13690;BME280;6917;52.194;9.894;2022-11-11T08:11:16;101736.56;;;9.56;81.63
13690;BME280;6917;52.194;9.894;2022-11-11T08:13:41;101745.28;;;9.63;81.36
13690;BME280;6917;52.194;9.894;2022-11-11T08:16:12;101745.28;;;9.73;81.12
13690;BME280;6917;52.194;9.894;2022-11-11T08:18:39;101741.47;;;9.79;80.62
13690;BME280;6917;52.194;9.894;2022-11-11T08:21:05;101746.63;;;9.80;80.66
13690;BME280;6917;52.194;9.894;2022-11-11T08:23:32;101749.94;;;9.88;80.38
13690;BME280;6917;52.194;9.894;2022-11-11T08:26:02;101752.91;;;9.96;79.87
13690;BME280;6917;52.194;9.894;2022-11-11T08:28:29;101756.44;;;10.07;79.94
13690;BME280;6917;52.194;9.894;2022-11-11T08:30:58;101756.19;;;10.13;79.92
13690;BME280;6917;52.194;9.894;2022-11-11T08:33:24;101752.91;;;10.22;79.02
13690;BME280;6917;52.194;9.894;2022-11-11T08:35:50;101760.00;;;10.28;78.83
13690;BME280;6917;52.194;9.894;2022-11-11T08:38:19;101766.78;;;10.35;78.73
13690;BME280;6917;52.194;9.894;2022-11-11T08:40:44;101757.75;;;10.40;78.83
13690;BME280;6917;52.194;9.894;2022-11-11T08:43:09;101766.25;;;10.43;78.06
13690;BME280;6917;52.194;9.894;2022-11-11T08:45:35;101763.75;;;10.47;78.47
13690;BME280;6917;52.194;9.894;2022-11-11T08:48:00;101758.28;;;10.52;77.67
13690;BME280;6917;52.194;9.894;2022-11-11T08:50:25;101768.63;;;10.55;77.60
13690;BME280;6917;52.194;9.894;2022-11-11T08:52:53;101758.28;;;10.57;77.53
13690;BME280;6917;52.194;9.894;2022-11-11T08:55:19;101755.25;;;10.59;77.72
13690;BME280;6917;52.194;9.894;2022-11-11T08:57:47;101751.38;;;10.65;77.23
13690;BME280;6917;52.194;9.894;2022-11-11T09:00:13;101762.03;;;10.66;77.79
13690;BME280;6917;52.194;9.894;2022-11-11T09:02:38;101750.00;;;10.72;77.55
13690;BME280;6917;52.194;9.894;2022-11-11T09:05:04;101755.16;;;10.79;76.80
13690;BME280;6917;52.194;9.894;2022-11-11T09:07:31;101749.66;;;10.84;76.25
13690;BME280;6917;52.194;9.894;2022-11-11T09:09:56;101757.31;;;10.87;76.43
13690;BME280;6917;52.194;9.894;2022-11-11T09:12:21;101759.19;;;10.92;76.35
13690;BME280;6917;52.194;9.894;2022-11-11T09:14:47;101750.97;;;10.97;75.74
13690;BME280;6917;52.194;9.894;2022-11-11T09:17:14;101749.59;;;10.99;75.81
13690;BME280;6917;52.194;9.894;2022-11-11T09:19:39;101763.25;;;11.05;75.55
13690;BME280;6917;52.194;9.894;2022-11-11T09:22:04;101765.94;;;11.10;75.29
13690;BME280;6917;52.194;9.894;2022-11-11T09:24:31;101776.00;;;11.19;75.54
13690;BME280;6917;52.194;9.894;2022-11-11T09:26:56;101791.56;;;11.29;75.92
13690;BME280;6917;52.194;9.894;2022-11-11T09:29:21;101788.25;;;11.32;74.98
13690;BME280;6917;52.194;9.894;2022-11-11T09:31:47;101797.50;;;11.36;74.87
13690;BME280;6917;52.194;9.894;2022-11-11T09:34:13;101799.09;;;11.42;73.97
13690;BME280;6917;52.194;9.894;2022-11-11T09:36:38;101800.97;;;11.52;74.26
13690;BME280;6917;52.194;9.894;2022-11-11T09:39:04;101805.31;;;11.58;73.94
13690;BME280;6917;52.194;9.894;2022-11-11T09:50:10;101820.22;;;11.81;74.57
13690;BME280;6917;52.194;9.894;2022-11-11T09:53:03;101821.03;;;11.81;74.48
13690;BME280;6917;52.194;9.894;2022-11-11T09:55:41;101816.91;;;11.84;74.90
13690;BME280;6917;52.194;9.894;2022-11-11T09:58:21;101810.63;;;11.83;74.72
13690;BME280;6917;52.194;9.894;2022-11-11T10:00:55;101824.03;;;11.85;74.79
13690;BME280;6917;52.194;9.894;2022-11-11T10:03:24;101824.84;;;11.85;74.43
13690;BME280;6917;52.194;9.894;2022-11-11T10:08:27;101830.81;;;11.93;75.23
13690;BME280;6917;52.194;9.894;2022-11-11T10:10:58;101824.53;;;11.92;75.25
13690;BME280;6917;52.194;9.894;2022-11-11T10:13:31;101834.84;;;12.00;75.40
13690;BME280;6917;52.194;9.894;2022-11-11T10:18:41;101847.19;;;12.03;75.26
13690;BME280;6917;52.194;9.894;2022-11-11T10:21:15;101845.72;;;12.10;74.89
13690;BME280;6917;52.194;9.894;2022-11-11T10:23:47;101841.00;;;12.21;75.20
13690;BME280;6917;52.194;9.894;2022-11-11T10:26:42;101842.03;;;12.25;74.86
13690;BME280;6917;52.194;9.894;2022-11-11T10:29:14;101853.16;;;12.39;75.25
13690;BME280;6917;52.194;9.894;2022-11-11T10:31:42;101857.66;;;12.54;74.88
13690;BME280;6917;52.194;9.894;2022-11-11T10:36:43;101861.06;;;12.69;73.96
13690;BME280;6917;52.194;9.894;2022-11-11T10:39:14;101849.22;;;12.74;72.96
13690;BME280;6917;52.194;9.894;2022-11-11T10:41:46;101853.03;;;12.78;73.03
13690;BME280;6917;52.194;9.894;2022-11-11T10:44:26;101863.63;;;12.85;73.38
13690;BME280;6917;52.194;9.894;2022-11-11T10:49:23;101857.97;;;13.00;72.85
13690;BME280;6917;52.194;9.894;2022-11-11T11:00:07;101855.81;;;13.21;72.72
13690;BME280;6917;52.194;9.894;2022-11-11T11:05:57;101853.53;;;13.28;71.04
13690;BME280;6917;52.194;9.894;2022-11-11T11:08:29;101844.72;;;13.31;71.02
13690;BME280;6917;52.194;9.894;2022-11-11T11:11:01;101838.69;;;13.29;70.15
13690;BME280;6917;52.194;9.894;2022-11-11T11:13:39;101831.22;;;13.34;70.17
13690;BME280;6917;52.194;9.894;2022-11-11T11:16:21;101837.34;;;13.45;70.64
13690;BME280;6917;52.194;9.894;2022-11-11T11:24:22;101837.81;;;13.52;68.92
13690;BME280;6917;52.194;9.894;2022-11-11T11:26:51;101837.69;;;13.62;69.42
13690;BME280;6917;52.194;9.894;2022-11-11T11:29:24;101826.19;;;13.60;68.54
13690;BME280;6917;52.194;9.894;2022-11-11T11:31:51;101831.13;;;13.58;69.05
13690;BME280;6917;52.194;9.894;2022-11-11T11:34:16;101819.56;;;13.61;68.20
13690;BME280;6917;52.194;9.894;2022-11-11T11:36:41;101823.47;;;13.74;67.97
13690;BME280;6917;52.194;9.894;2022-11-11T11:39:07;101824.72;;;13.82;67.53
13690;BME280;6917;52.194;9.894;2022-11-11T11:41:38;101829.75;;;13.93;67.76
13690;BME280;6917;52.194;9.894;2022-11-11T11:44:24;101824.47;;;13.97;66.17
13690;BME280;6917;52.194;9.894;2022-11-11T11:46:51;101819.50;;;13.99;65.75
13690;BME280;6917;52.194;9.894;2022-11-11T11:49:37;101829.69;;;13.98;65.18
13690;BME280;6917;52.194;9.894;2022-11-11T12:00:05;101833.16;;;14.37;65.64
13690;BME280;6917;52.194;9.894;2022-11-11T12:05:39;101824.75;;;14.28;62.58
13690;BME280;6917;52.194;9.894;2022-11-11T12:08:07;101825.56;;;14.28;63.85
13690;BME280;6917;52.194;9.894;2022-11-11T12:11:00;101831.59;;;14.30;64.47
13690;BME280;6917;52.194;9.894;2022-11-11T12:16:34;101832.00;;;14.24;62.96
13690;BME280;6917;52.194;9.894;2022-11-11T12:19:46;101835.56;;;14.24;62.94
13690;BME280;6917;52.194;9.894;2022-11-11T12:25:19;101839.84;;;14.30;63.46
13690;BME280;6917;52.194;9.894;2022-11-11T12:28:01;101844.16;;;14.37;62.79
13690;BME280;6917;52.194;9.894;2022-11-11T12:30:31;101836.84;;;14.46;63.35
13690;BME280;6917;52.194;9.894;2022-11-11T12:35:57;101832.22;;;14.41;61.94
13690;BME280;6917;52.194;9.894;2022-11-11T12:46:32;101843.69;;;14.29;62.27
13690;BME280;6917;52.194;9.894;2022-11-11T12:49:12;101845.16;;;14.41;62.87
13690;BME280;6917;52.194;9.894;2022-11-11T12:51:54;101848.72;;;14.41;62.84
13690;BME280;6917;52.194;9.894;2022-11-11T12:54:30;101833.34;;;14.40;63.61
13690;BME280;6917;52.194;9.894;2022-11-11T12:57:08;101840.47;;;14.41;62.33
13690;BME280;6917;52.194;9.894;2022-11-11T13:15:30;101841.59;;;14.40;61.18
13690;BME280;6917;52.194;9.894;2022-11-11T13:17:58;101840.88;;;14.35;60.57
13690;BME280;6917;52.194;9.894;2022-11-11T13:20:38;101846.97;;;14.32;61.21
13690;BME280;6917;52.194;9.894;2022-11-11T13:23:10;101849.72;;;14.32;62.01
13690;BME280;6917;52.194;9.894;2022-11-11T13:25:39;101853.88;;;14.29;62.70
13690;BME280;6917;52.194;9.894;2022-11-11T13:28:12;101856.94;;;14.27;61.51
13690;BME280;6917;52.194;9.894;2022-11-11T13:30:47;101864.69;;;14.25;60.88
13690;BME280;6917;52.194;9.894;2022-11-11T13:33:24;101861.94;;;14.25;60.78
13690;BME280;6917;52.194;9.894;2022-11-11T13:35:56;101868.03;;;14.22;60.73
13690;BME280;6917;52.194;9.894;2022-11-11T13:38:30;101862.75;;;14.26;61.43
13690;BME280;6917;52.194;9.894;2022-11-11T13:41:00;101864.69;;;14.25;60.94
13690;BME280;6917;52.194;9.894;2022-11-11T13:43:31;101865.50;;;14.26;61.13
13690;BME280;6917;52.194;9.894;2022-11-11T13:46:00;101859.56;;;14.19;61.29
13690;BME280;6917;52.194;9.894;2022-11-11T13:48:31;101856.28;;;14.17;61.81
13690;BME280;6917;52.194;9.894;2022-11-11T13:53:36;101864.03;;;14.15;62.04
13690;BME280;6917;52.194;9.894;2022-11-11T13:56:03;101862.09;;;14.15;62.75
13690;BME280;6917;52.194;9.894;2022-11-11T13:58:32;101866.47;;;14.16;63.18
13690;BME280;6917;52.194;9.894;2022-11-11T14:01:05;101869.00;;;14.13;63.01
13690;BME280;6917;52.194;9.894;2022-11-11T14:03:57;101860.88;;;14.08;62.73
13690;BME280;6917;52.194;9.894;2022-11-11T14:08:53;101860.09;;;14.02;63.33
13690;BME280;6917;52.194;9.894;2022-11-11T14:24:08;101851.00;;;13.88;62.81
13690;BME280;6917;52.194;9.894;2022-11-11T14:26:33;101855.47;;;13.84;63.19
13690;BME280;6917;52.194;9.894;2022-11-11T14:29:02;101858.91;;;13.76;63.66
13690;BME280;6917;52.194;9.894;2022-11-11T14:31:38;101858.34;;;13.74;63.50
13690;BME280;6917;52.194;9.894;2022-11-11T14:34:29;101846.66;;;13.68;63.89
13690;BME280;6917;52.194;9.894;2022-11-11T14:37:22;101851.09;;;13.64;64.35
13690;BME280;6917;52.194;9.894;2022-11-11T14:39:53;101846.47;;;13.59;64.65
13690;BME280;6917;52.194;9.894;2022-11-11T14:45:01;101850.06;;;13.41;65.32
13690;BME280;6917;52.194;9.894;2022-11-11T14:47:33;101845.59;;;13.45;64.86
13690;BME280;6917;52.194;9.894;2022-11-11T14:49:59;101844.56;;;13.41;65.49
13690;BME280;6917;52.194;9.894;2022-11-11T14:52:27;101847.38;;;13.36;65.38
13690;BME280;6917;52.194;9.894;2022-11-11T14:57:29;101839.66;;;13.38;65.20
13690;BME280;6917;52.194;9.894;2022-11-11T14:59:56;101839.44;;;13.34;65.39
13690;BME280;6917;52.194;9.894;2022-11-11T15:02:28;101843.53;;;13.37;65.02
13690;BME280;6917;52.194;9.894;2022-11-11T15:04:59;101842.19;;;13.34;65.23
13690;BME280;6917;52.194;9.894;2022-11-11T15:10:02;101841.50;;;13.24;65.47
13690;BME280;6917;52.194;9.894;2022-11-11T15:13:38;101845.16;;;13.19;65.54
13690;BME280;6917;52.194;9.894;2022-11-11T15:15:52;101829.38;;;13.06;65.45
13690;BME280;6917;52.194;9.894;2022-11-11T15:18:50;101849.09;;;13.08;64.52
13690;BME280;6917;52.194;9.894;2022-11-11T15:21:31;101840.03;;;13.07;64.28
13690;BME280;6917;52.194;9.894;2022-11-11T15:27:07;101837.19;;;12.94;64.44
13690;BME280;6917;52.194;9.894;2022-11-11T15:30:05;101844.31;;;12.95;63.98
13690;BME280;6917;52.194;9.894;2022-11-11T15:33:01;101842.19;;;13.10;62.85